Time;durP1;ratioP1;P1;durP2;ratioP2;P2;SDS_P1;SDS_P2;PMS_P1;PMS_P2;Temp;Humidity;BMP_temperature;BMP_pressure;BME280_temperature;BME280_humidity;BME280_pressure;Samples;Min_cycle;Max_cycle;Signal;HPM_P1;HPM_P2
2022/08/25 00:01:33;;;;;;;29.40;26.30;;;21.20;99.90;;;;;;5032884;28;20057;-69
2022/08/25 00:04:01;;;;;;;29.53;26.70;;;21.10;99.90;;;;;;5032857;28;20076;-69
2022/08/25 00:06:26;;;;;;;30.27;27.07;;;21.20;99.90;;;;;;5032877;28;20164;-69
2022/08/25 00:08:52;;;;;;;33.83;30.23;;;21.10;99.90;;;;;;5032697;28;20486;-70
2022/08/25 00:11:23;;;;;;;33.77;30.17;;;21.10;99.90;;;;;;5032962;28;20081;-69
2022/08/25 00:13:53;;;;;;;31.73;28.30;;;21.10;99.90;;;;;;5032873;28;20046;-69
2022/08/25 00:16:20;;;;;;;34.97;30.93;;;21.10;99.90;;;;;;5032888;28;20046;-69
2022/08/25 00:18:56;;;;;;;36.90;31.00;;;21.10;99.90;;;;;;5033543;28;20045;-69
2022/08/25 00:21:23;;;;;;;37.23;29.50;;;21.10;99.90;;;;;;5017350;28;20111;-69
2022/08/25 00:23:49;;;;;;;40.50;30.67;;;21.10;99.90;;;;;;5036249;28;20053;-69
2022/08/25 00:26:16;;;;;;;35.63;30.97;;;21.10;99.90;;;;;;5036692;28;20056;-69
2022/08/25 00:28:43;;;;;;;34.83;31.23;;;21.10;99.90;;;;;;5036093;28;20088;-69
2022/08/25 00:31:16;;;;;;;34.93;27.97;;;21.10;99.90;;;;;;5036114;28;20049;-69
2022/08/25 00:33:43;;;;;;;33.27;27.50;;;21.10;99.90;;;;;;5036080;28;20037;-69
2022/08/25 00:36:13;;;;;;;32.33;28.17;;;21.10;99.90;;;;;;5035980;28;20054;-69
2022/08/25 00:38:40;;;;;;;33.63;26.00;;;21.10;99.90;;;;;;5035977;28;20050;-69
2022/08/25 00:41:07;;;;;;;31.47;26.47;;;21.10;99.90;;;;;;5035875;28;20052;-70
2022/08/25 00:43:45;;;;;;;36.50;26.93;;;21.10;99.90;;;;;;5035750;28;20115;-70
2022/08/25 00:46:17;;;;;;;28.27;24.97;;;21.10;99.90;;;;;;5035793;28;20497;-70
2022/08/25 00:48:46;;;;;;;27.60;23.63;;;21.10;99.90;;;;;;5018093;28;20048;-70
2022/08/25 00:51:15;;;;;;;25.93;22.30;;;21.10;99.90;;;;;;5036073;28;20125;-70
2022/08/25 00:53:42;;;;;;;24.23;20.97;;;21.10;99.90;;;;;;5036420;28;20347;-70
2022/08/25 00:56:08;;;;;;;24.63;21.07;;;21.10;99.90;;;;;;5035644;28;20500;-70
2022/08/25 00:58:36;;;;;;;23.47;19.73;;;21.10;99.90;;;;;;5017850;28;20045;-70
2022/08/25 01:01:01;;;;;;;21.87;17.97;;;21.10;99.90;;;;;;5036004;28;20056;-70
2022/08/25 01:03:29;;;;;;;19.17;17.20;;;21.10;99.90;;;;;;5035554;28;20046;-70
2022/08/25 01:05:56;;;;;;;20.50;17.87;;;21.10;99.90;;;;;;5017732;28;20050;-70
2022/08/25 01:08:26;;;;;;;19.57;16.93;;;21.00;99.90;;;;;;5035277;28;20128;-70
2022/08/25 01:10:53;;;;;;;18.87;15.03;;;21.00;99.90;;;;;;5036157;28;20119;-70
2022/08/25 01:13:36;;;;;;;19.37;14.53;;;21.00;99.90;;;;;;5035811;28;20041;-70
2022/08/25 01:16:02;;;;;;;18.27;15.27;;;21.00;99.90;;;;;;5035342;28;20505;-69
2022/08/25 01:18:28;;;;;;;16.70;14.77;;;21.00;99.90;;;;;;5034981;28;20466;-70
2022/08/25 01:20:58;;;;;;;16.20;14.23;;;21.00;99.90;;;;;;5035212;28;20053;-70
2022/08/25 01:23:26;;;;;;;15.73;14.00;;;21.00;99.90;;;;;;5017897;28;20084;-69
2022/08/25 01:26:03;;;;;;;16.33;14.47;;;21.00;99.90;;;;;;5035062;28;20045;-70
2022/08/25 01:28:29;;;;;;;15.10;13.50;;;20.90;99.90;;;;;;5018023;28;20045;-69
2022/08/25 01:30:54;;;;;;;16.70;13.67;;;20.90;99.90;;;;;;5035424;28;20410;-69
2022/08/25 01:33:20;;;;;;;17.60;12.13;;;20.90;99.90;;;;;;5033798;28;20045;-69
2022/08/25 01:35:46;;;;;;;15.57;12.70;;;20.90;99.90;;;;;;5034876;28;20477;-69
2022/08/25 01:38:13;;;;;;;16.87;11.17;;;20.80;99.90;;;;;;5034783;28;20092;-70
2022/08/25 01:40:39;;;;;;;19.13;11.20;;;20.80;99.90;;;;;;5034480;28;20490;-70
2022/08/25 01:43:21;;;;;;;11.57;10.07;;;20.80;99.90;;;;;;5034405;28;20057;-70
2022/08/25 01:45:48;;;;;;;13.67;9.63;;;20.80;99.90;;;;;;5034763;28;20041;-70
2022/08/25 01:48:15;;;;;;;12.37;9.77;;;20.80;99.90;;;;;;5035340;28;20064;-70
2022/08/25 01:50:43;;;;;;;11.57;9.37;;;20.80;99.90;;;;;;5034706;28;20452;-69
2022/08/25 01:53:28;;;;;;;11.63;9.00;;;20.80;99.90;;;;;;5035307;28;20049;-70
2022/08/25 01:56:00;;;;;;;14.13;9.10;;;20.70;99.90;;;;;;5034488;28;20136;-70
2022/08/25 01:58:32;;;;;;;10.47;8.00;;;20.70;99.90;;;;;;5035010;28;20057;-70
2022/08/25 02:01:01;;;;;;;9.07;7.70;;;20.70;99.90;;;;;;5034956;28;20087;-69
2022/08/25 02:03:28;;;;;;;11.47;7.50;;;20.70;99.90;;;;;;5034371;28;20049;-69
2022/08/25 02:05:54;;;;;;;12.13;7.23;;;20.60;99.90;;;;;;5016874;28;20045;-69
2022/08/25 02:08:21;;;;;;;12.50;7.03;;;20.60;99.90;;;;;;5034254;28;20129;-69
2022/08/25 02:10:48;;;;;;;9.73;7.00;;;20.60;99.90;;;;;;5035037;28;20049;-69
2022/08/25 02:13:14;;;;;;;8.47;6.70;;;20.60;99.90;;;;;;5016803;28;20060;-69
2022/08/25 02:15:55;;;;;;;10.07;6.10;;;20.60;99.90;;;;;;5034191;28;20473;-69
2022/08/25 02:18:21;;;;;;;12.57;6.43;;;20.60;99.90;;;;;;5034136;28;20045;-69
2022/08/25 02:20:47;;;;;;;9.00;5.80;;;20.60;99.90;;;;;;5034034;28;20052;-69
2022/08/25 02:23:13;;;;;;;10.50;5.77;;;20.60;99.90;;;;;;5016876;28;20099;-69
2022/08/25 02:25:40;;;;;;;7.97;6.00;;;20.50;99.90;;;;;;5033988;28;20050;-69
2022/08/25 02:28:07;;;;;;;9.67;5.33;;;20.50;99.90;;;;;;5016781;28;20041;-69
2022/08/25 02:30:34;;;;;;;10.63;5.27;;;20.50;99.90;;;;;;5033898;28;20096;-69
2022/08/25 02:33:00;;;;;;;10.07;5.40;;;20.50;99.90;;;;;;5017165;28;20111;-69
2022/08/25 02:35:26;;;;;;;7.90;4.93;;;20.50;99.90;;;;;;5033766;28;20041;-69
2022/08/25 02:37:53;;;;;;;7.80;4.90;;;20.40;99.90;;;;;;5033859;28;20098;-69
2022/08/25 02:40:20;;;;;;;11.77;4.70;;;20.40;99.90;;;;;;5033699;28;20056;-69
2022/08/25 02:42:47;;;;;;;9.70;4.80;;;20.40;99.90;;;;;;5033721;28;20057;-69
2022/08/25 02:45:13;;;;;;;9.57;4.40;;;20.40;99.90;;;;;;5015717;28;20045;-70
2022/08/25 02:47:39;;;;;;;10.27;4.43;;;20.40;99.90;;;;;;5034025;28;20049;-69
2022/08/25 02:50:07;;;;;;;11.00;4.27;;;20.40;99.90;;;;;;5033941;28;20065;-69
2022/08/25 02:52:34;;;;;;;8.43;3.80;;;20.40;99.90;;;;;;5033519;28;20056;-69
2022/08/25 02:55:03;;;;;;;10.33;3.80;;;20.40;99.90;;;;;;5016476;28;20049;-69
2022/08/25 02:57:30;;;;;;;6.80;4.03;;;20.30;99.90;;;;;;5033520;28;20132;-70
2022/08/25 02:59:56;;;;;;;8.53;4.07;;;20.30;99.90;;;;;;5033788;28;20050;-69
2022/08/25 03:02:23;;;;;;;9.93;4.23;;;20.30;99.90;;;;;;5016808;28;20060;-70
2022/08/25 03:04:50;;;;;;;6.97;4.37;;;20.30;99.90;;;;;;5033398;28;20496;-70
2022/08/25 03:07:17;;;;;;;10.47;4.50;;;20.30;99.90;;;;;;5033054;28;20509;-70
2022/08/25 03:09:43;;;;;;;8.77;4.33;;;20.30;99.90;;;;;;5015624;28;20056;-70
2022/08/25 03:12:10;;;;;;;9.70;4.07;;;20.30;99.90;;;;;;5034131;28;20041;-70
2022/08/25 03:14:36;;;;;;;10.63;3.50;;;20.20;99.90;;;;;;5033308;28;20457;-70
2022/08/25 03:17:02;;;;;;;8.37;4.10;;;20.20;99.90;;;;;;5015784;28;20132;-69
2022/08/25 03:19:28;;;;;;;7.73;4.03;;;20.20;99.90;;;;;;5033265;28;20052;-69
2022/08/25 03:21:55;;;;;;;6.13;3.60;;;20.20;99.90;;;;;;5033719;28;20045;-69
2022/08/25 03:24:22;;;;;;;5.37;3.30;;;20.20;99.90;;;;;;5015892;28;20053;-70
2022/08/25 03:26:57;;;;;;;9.90;3.47;;;20.20;99.90;;;;;;5033200;28;20111;-70
2022/08/25 03:29:29;;;;;;;12.23;3.50;;;20.20;99.90;;;;;;5033942;28;20045;-70
2022/08/25 03:31:59;;;;;;;5.30;2.90;;;20.10;99.90;;;;;;5033198;28;20045;-70
2022/08/25 03:34:27;;;;;;;10.67;4.40;;;20.10;99.90;;;;;;5033118;28;20072;-70
2022/08/25 03:36:54;;;;;;;9.50;3.50;;;20.10;99.90;;;;;;5033928;28;20076;-70
2022/08/25 03:39:22;;;;;;;7.40;3.30;;;20.10;99.90;;;;;;5032768;28;20554;-70
2022/08/25 03:41:49;;;;;;;6.07;3.23;;;20.10;99.90;;;;;;5033114;28;20482;-69
2022/08/25 03:44:16;;;;;;;9.83;3.80;;;20.10;99.90;;;;;;5033517;28;20041;-70
2022/08/25 03:46:51;;;;;;;11.47;4.27;;;20.10;99.90;;;;;;5033809;28;20054;-70
2022/08/25 03:49:21;;;;;;;9.57;3.87;;;20.00;99.90;;;;;;5032977;28;20038;-70
2022/08/25 03:51:50;;;;;;;7.23;3.10;;;20.00;99.90;;;;;;5032930;28;20107;-69
2022/08/25 03:54:19;;;;;;;8.13;3.43;;;20.00;99.90;;;;;;5033433;28;20084;-69
2022/08/25 03:56:45;;;;;;;10.63;3.63;;;20.00;99.90;;;;;;5035460;28;20049;-70
2022/08/25 03:59:11;;;;;;;7.33;3.80;;;20.00;99.90;;;;;;5020043;28;20119;-70
2022/08/25 04:01:39;;;;;;;9.20;3.37;;;20.00;99.90;;;;;;5037126;28;20053;-70
2022/08/25 04:04:06;;;;;;;6.83;3.87;;;20.00;99.90;;;;;;5037418;28;20120;-70
2022/08/25 04:06:32;;;;;;;10.07;3.87;;;19.90;99.90;;;;;;5036607;28;20085;-70
2022/08/25 04:08:58;;;;;;;5.67;3.40;;;19.90;99.90;;;;;;5019391;28;20080;-69
2022/08/25 04:11:25;;;;;;;7.40;3.27;;;19.90;99.90;;;;;;5036411;28;20056;-70
2022/08/25 04:13:51;;;;;;;8.03;3.60;;;19.90;99.90;;;;;;5036971;28;20049;-69
2022/08/25 04:16:23;;;;;;;6.47;3.60;;;19.90;99.90;;;;;;5036362;28;20397;-69
2022/08/25 04:18:50;;;;;;;8.53;3.70;;;19.90;99.90;;;;;;5036226;28;20041;-70
2022/08/25 04:21:17;;;;;;;7.43;3.87;;;19.80;99.90;;;;;;5036276;28;20099;-69
2022/08/25 04:23:45;;;;;;;8.40;3.50;;;19.80;99.90;;;;;;5036246;28;20053;-69
2022/08/25 04:26:14;;;;;;;8.23;3.30;;;19.80;99.90;;;;;;5036215;28;20041;-69
2022/08/25 04:28:40;;;;;;;7.43;3.70;;;19.80;99.90;;;;;;5036578;28;20046;-69
2022/08/25 04:31:08;;;;;;;6.40;3.50;;;19.80;99.90;;;;;;5036172;28;20088;-69
2022/08/25 04:33:34;;;;;;;10.83;3.77;;;19.80;99.90;;;;;;5036094;28;20060;-69
2022/08/25 04:36:00;;;;;;;7.20;3.13;;;19.80;99.90;;;;;;5018624;28;20051;-69
2022/08/25 04:38:26;;;;;;;7.47;3.40;;;19.70;99.90;;;;;;5036028;28;20180;-70
2022/08/25 04:41:00;;;;;;;13.70;3.80;;;19.80;99.90;;;;;;5035969;28;20532;-69
2022/08/25 04:43:26;;;;;;;7.70;3.10;;;19.70;99.90;;;;;;5036280;28;20053;-70
2022/08/25 04:45:52;;;;;;;7.47;3.80;;;19.70;99.90;;;;;;5018461;28;20629;-69
2022/08/25 04:48:18;;;;;;;7.50;3.40;;;19.70;99.90;;;;;;5035751;28;20053;-69
2022/08/25 04:50:44;;;;;;;6.77;3.50;;;19.70;99.90;;;;;;5035705;28;20122;-69
2022/08/25 04:53:10;;;;;;;14.07;4.03;;;19.70;99.90;;;;;;5018196;28;20053;-69
2022/08/25 04:55:47;;;;;;;8.83;3.53;;;19.70;99.90;;;;;;5035423;28;20489;-69
2022/08/25 04:58:15;;;;;;;9.70;4.57;;;19.70;99.90;;;;;;5035392;28;20512;-69
2022/08/25 05:00:42;;;;;;;9.07;3.63;;;19.70;99.90;;;;;;5035674;28;20057;-69
2022/08/25 05:03:08;;;;;;;6.37;3.33;;;19.70;99.90;;;;;;5035539;28;20086;-69
2022/08/25 05:05:37;;;;;;;8.50;3.37;;;19.70;99.90;;;;;;5035476;28;20049;-69
2022/08/25 05:08:04;;;;;;;10.07;3.93;;;19.70;99.90;;;;;;5035081;28;20041;-69
2022/08/25 05:10:31;;;;;;;11.77;3.63;;;19.80;99.90;;;;;;5035961;28;20120;-69
2022/08/25 05:12:56;;;;;;;9.60;3.23;;;19.70;99.90;;;;;;5035650;28;20048;-69
2022/08/25 05:18:06;;;;;;;10.05;3.58;;;19.80;99.90;;;;;;5035351;28;20057;-69
2022/08/25 05:20:36;;;;;;;13.07;3.80;;;19.80;99.90;;;;;;5035686;28;20041;-69
2022/08/25 05:23:02;;;;;;;6.63;3.63;;;19.80;99.90;;;;;;5035234;28;20053;-69
2022/08/25 05:25:28;;;;;;;7.53;3.53;;;19.80;99.90;;;;;;5035381;28;20041;-70
2022/08/25 05:27:53;;;;;;;10.67;3.80;;;19.80;99.90;;;;;;5035069;28;20049;-69
2022/08/25 05:30:19;;;;;;;10.70;3.70;;;19.80;99.90;;;;;;5035049;28;20046;-70
2022/08/25 05:32:45;;;;;;;7.83;3.60;;;19.90;99.90;;;;;;5034970;28;20041;-70
2022/08/25 05:35:11;;;;;;;7.93;3.87;;;19.90;99.90;;;;;;5035225;28;20051;-69
2022/08/25 05:37:36;;;;;;;6.67;3.50;;;19.90;99.90;;;;;;5034896;28;20048;-70
2022/08/25 05:40:05;;;;;;;7.53;3.57;;;20.00;99.90;;;;;;5034865;28;20083;-70
2022/08/25 05:42:30;;;;;;;7.27;3.57;;;19.90;99.90;;;;;;5035263;28;20414;-70
2022/08/25 05:44:56;;;;;;;8.10;3.73;;;20.00;99.90;;;;;;5034700;28;20053;-70
2022/08/25 05:47:22;;;;;;;8.50;3.90;;;20.00;99.90;;;;;;5035221;28;20041;-70
2022/08/25 05:49:48;;;;;;;10.63;3.60;;;20.10;99.90;;;;;;5034761;28;20500;-70
2022/08/25 05:52:14;;;;;;;8.03;3.30;;;20.10;99.90;;;;;;5017320;28;20066;-70
2022/08/25 05:54:40;;;;;;;11.60;3.70;;;20.20;99.90;;;;;;5034574;28;20481;-70
2022/08/25 05:57:06;;;;;;;8.17;3.93;;;20.30;99.90;;;;;;5034541;28;20045;-70
2022/08/25 05:59:32;;;;;;;7.77;3.60;;;20.30;99.90;;;;;;5034487;28;20053;-70
2022/08/25 06:04:42;;;;;;;8.23;4.10;;;20.50;99.90;;;;;;5035237;28;20045;-70
2022/08/25 06:07:08;;;;;;;7.03;3.50;;;21.10;99.90;;;;;;5034613;28;20401;-70
2022/08/25 06:09:37;;;;;;;6.13;3.33;;;22.20;99.90;;;;;;5034719;28;20049;-70
2022/08/25 06:12:03;;;;;;;6.07;3.03;;;23.30;99.90;;;;;;5034264;28;20045;-70
2022/08/25 06:14:29;;;;;;;7.60;3.40;;;24.30;99.90;;;;;;5034179;28;20450;-70
2022/08/25 06:16:55;;;;;;;8.50;3.47;;;25.30;97.00;;;;;;5034646;28;20041;-70
2022/08/25 06:19:22;;;;;;;5.33;3.40;;;26.20;94.20;;;;;;5033489;28;20072;-70
2022/08/25 06:21:48;;;;;;;6.70;3.10;;;27.10;90.40;;;;;;5034335;28;20080;-70
2022/08/25 06:24:14;;;;;;;7.63;3.37;;;27.50;77.70;;;;;;5016580;28;20054;-70
2022/08/25 06:26:40;;;;;;;8.83;3.30;;;28.00;74.50;;;;;;5034015;28;20449;-71
2022/08/25 06:29:05;;;;;;;5.87;2.70;;;28.60;71.60;;;;;;5034652;28;20129;-70
2022/08/25 06:31:31;;;;;;;7.63;3.20;;;29.00;67.90;;;;;;4984405;28;20050;-71
2022/08/25 06:33:57;;;;;;;6.90;3.10;;;29.20;63.30;;;;;;5033914;28;20046;-71
2022/08/25 06:36:23;;;;;;;8.37;3.10;;;29.60;61.50;;;;;;5016287;28;20386;-70
2022/08/25 06:38:49;;;;;;;6.67;2.97;;;30.10;59.80;;;;;;5033763;28;20088;-71
2022/08/25 06:41:15;;;;;;;6.37;3.63;;;30.30;57.50;;;;;;5016983;28;20077;-71
2022/08/25 06:43:41;;;;;;;10.82;3.17;;;30.60;55.70;;;;;;5033749;28;20045;-70
2022/08/25 06:46:12;;;;;;;5.53;3.25;;;30.90;54.90;;;;;;5033680;28;20111;-72
2022/08/25 06:48:38;;;;;;;5.68;2.97;;;31.20;53.20;;;;;;5033685;28;20458;-70
2022/08/25 06:51:07;;;;;;;7.13;3.42;;;31.40;52.80;;;;;;5016004;28;20057;-71
2022/08/25 06:53:33;;;;;;;7.07;3.05;;;31.80;51.80;;;;;;5033596;28;20053;-70
2022/08/25 06:55:59;;;;;;;6.18;3.33;;;32.10;51.10;;;;;;5015886;28;20054;-71
2022/08/25 06:58:25;;;;;;;9.43;3.25;;;31.80;50.10;;;;;;5033627;28;20041;-71
2022/08/25 07:00:51;;;;;;;7.38;3.00;;;32.00;49.70;;;;;;5033471;28;20537;-71
2022/08/25 07:03:17;;;;;;;8.70;3.22;;;32.20;49.70;;;;;;5034005;28;20370;-70
2022/08/25 07:05:55;;;;;;;7.82;3.50;;;32.30;48.70;;;;;;5034250;28;20378;-71
2022/08/25 07:08:22;;;;;;;6.68;3.10;;;32.50;47.20;;;;;;5033384;28;20142;-71
2022/08/25 07:10:48;;;;;;;10.23;3.28;;;32.80;48.10;;;;;;5015985;28;20052;-70
2022/08/25 07:13:15;;;;;;;9.98;4.03;;;33.00;47.60;;;;;;5033653;28;20053;-71
2022/08/25 07:15:42;;;;;;;8.07;3.65;;;33.50;46.50;;;;;;5033345;28;20055;-71
2022/08/25 07:18:10;;;;;;;12.98;3.53;;;33.60;45.80;;;;;;5033885;28;20068;-71
2022/08/25 07:20:37;;;;;;;6.70;3.50;;;33.80;45.90;;;;;;5033299;28;20057;-72
2022/08/25 07:23:03;;;;;;;6.45;3.13;;;33.80;45.70;;;;;;5016651;28;20049;-72
2022/08/25 07:25:29;;;;;;;5.70;3.30;;;34.00;45.50;;;;;;5033217;28;20468;-72
2022/08/25 07:27:55;;;;;;;10.00;3.40;;;34.30;45.50;;;;;;5015587;28;20041;-71
2022/08/25 07:30:21;;;;;;;7.43;3.35;;;34.80;44.80;;;;;;5035300;28;20084;-71
2022/08/25 07:32:46;;;;;;;6.28;3.17;;;34.90;43.90;;;;;;5038068;28;20042;-74
2022/08/25 07:35:15;;;;;;;7.88;3.42;;;35.30;44.20;;;;;;5038136;28;20448;-75
2022/08/25 07:37:44;;;;;;;7.65;3.53;;;35.30;44.10;;;;;;5037200;28;20469;-74
2022/08/25 07:40:16;;;;;;;11.57;3.30;;;35.60;43.50;;;;;;5020382;28;20095;-76
2022/08/25 07:42:42;;;;;;;7.55;3.92;;;35.70;42.20;;;;;;5019957;28;20095;-72
2022/08/25 07:45:10;;;;;;;7.32;3.40;;;35.40;42.70;;;;;;5037231;28;20400;-75
2022/08/25 07:47:37;;;;;;;6.80;3.10;;;35.50;42.50;;;;;;5037742;28;20045;-71
2022/08/25 07:50:09;;;;;;;7.82;3.72;;;35.60;42.20;;;;;;5036631;28;20635;-71
2022/08/25 07:52:34;;;;;;;6.43;3.28;;;35.60;41.80;;;;;;5037447;28;20160;-70
2022/08/25 07:55:01;;;;;;;10.52;3.38;;;35.60;42.10;;;;;;5036464;28;20485;-71
2022/08/25 07:57:28;;;;;;;5.75;3.10;;;34.90;42.90;;;;;;5036798;28;20049;-71
2022/08/25 07:59:55;;;;;;;4.75;3.03;;;33.90;43.80;;;;;;5036575;28;20493;-71
2022/08/25 08:02:20;;;;;;;7.18;3.08;;;33.20;44.70;;;;;;5037560;28;20193;-70
2022/08/25 08:04:49;;;;;;;6.60;3.33;;;32.30;45.40;;;;;;5019235;28;20045;-70
2022/08/25 08:07:19;;;;;;;9.65;3.50;;;31.70;74.70;;;;;;5037146;28;20050;-69
2022/08/25 08:09:46;;;;;;;7.05;3.40;;;31.00;47.60;;;;;;5036521;28;20076;-69
2022/08/25 08:12:12;;;;;;;7.40;3.35;;;30.70;48.40;;;;;;5036539;28;20111;-69
2022/08/25 08:14:38;;;;;;;8.10;3.10;;;30.30;49.60;;;;;;5036515;28;20049;-69
2022/08/25 08:17:06;;;;;;;5.63;3.38;;;30.10;50.40;;;;;;5036702;28;20050;-69
2022/08/25 08:19:33;;;;;;;8.90;3.10;;;29.90;51.10;;;;;;5037205;28;20041;-69
2022/08/25 08:21:59;;;;;;;6.75;3.30;;;29.60;51.80;;;;;;5036337;28;20116;-69
2022/08/25 08:24:27;;;;;;;5.18;3.13;;;29.50;52.40;;;;;;5036240;28;20106;-69
2022/08/25 08:26:53;;;;;;;9.63;3.78;;;29.40;53.30;;;;;;5037023;28;20140;-69
2022/08/25 08:29:21;;;;;;;6.57;3.20;;;29.30;53.90;;;;;;5036706;28;20132;-69
2022/08/25 08:31:47;;;;;;;12.10;4.00;;;29.30;54.40;;;;;;5036704;28;20133;-69
2022/08/25 08:34:12;;;;;;;6.65;3.30;;;29.30;54.90;;;;;;5036142;28;20081;-69
2022/08/25 08:36:38;;;;;;;11.23;3.60;;;29.10;55.10;;;;;;5036123;28;20046;-69
2022/08/25 08:39:04;;;;;;;9.20;3.38;;;29.00;55.50;;;;;;5035962;28;20085;-69
2022/08/25 08:44:44;;;;;;;8.85;3.05;;;28.70;56.50;;;;;;5036407;28;20383;-69
2022/08/25 08:47:43;;;;;;;7.72;3.05;;;28.60;57.60;;;;;;5035865;28;20049;-70
2022/08/25 08:50:27;;;;;;;6.00;3.20;;;28.50;57.00;;;;;;5035796;28;20057;-70
2022/08/25 08:53:18;;;;;;;10.82;3.10;;;28.40;58.00;;;;;;5035762;28;20068;-70
2022/08/25 08:55:57;;;;;;;7.35;2.75;;;28.40;58.10;;;;;;5036248;28;20183;-70
2022/08/25 08:58:36;;;;;;;10.27;3.10;;;28.40;59.20;;;;;;5036571;28;20041;-71
2022/08/25 09:01:02;;;;;;;8.52;3.58;;;28.40;58.40;;;;;;5035318;28;20037;-71
2022/08/25 09:03:38;;;;;;;8.32;3.00;;;28.40;58.60;;;;;;5036638;28;20153;-71
2022/08/25 09:06:17;;;;;;;9.02;3.30;;;28.40;58.80;;;;;;5035553;28;20057;-70
2022/08/25 09:08:43;;;;;;;7.25;3.10;;;28.40;58.90;;;;;;5018066;28;20398;-73
2022/08/25 09:11:32;;;;;;;11.65;2.95;;;28.40;59.10;;;;;;5035372;28;20393;-71
2022/08/25 09:14:16;;;;;;;7.75;2.88;;;28.50;59.00;;;;;;5035933;28;20049;-71
2022/08/25 09:17:03;;;;;;;8.93;2.55;;;28.50;56.40;;;;;;5035380;28;20056;-71
2022/08/25 09:19:41;;;;;;;9.23;2.75;;;28.50;56.40;;;;;;5035677;28;20398;-71
2022/08/25 09:22:22;;;;;;;6.20;2.63;;;28.50;56.40;;;;;;5036096;28;20132;-72
2022/08/25 09:24:57;;;;;;;7.50;2.53;;;28.50;55.90;;;;;;5036018;28;20050;-72
2022/08/25 09:27:44;;;;;;;9.90;2.95;;;28.60;56.80;;;;;;5035757;28;20139;-72
2022/08/25 09:30:20;;;;;;;7.13;2.63;;;28.70;53.90;;;;;;5035664;28;20389;-72
2022/08/25 09:32:47;;;;;;;8.98;2.88;;;28.60;54.30;;;;;;5036202;28;20048;-73
2022/08/25 09:35:21;;;;;;;4.78;2.33;;;28.60;54.20;;;;;;5035029;28;20096;-74
2022/08/25 09:38:04;;;;;;;;;;;28.60;54.20;;;;;;5035411;28;20095;-69
2022/08/25 09:40:33;;;;;;;4.97;2.50;;;28.60;53.60;;;;;;5034919;28;19921;-69
2022/08/25 09:43:02;;;;;;;5.15;2.20;;;28.60;53.20;;;;;;5035032;28;20107;-69
2022/08/25 09:45:43;;;;;;;8.00;2.35;;;28.70;52.50;;;;;;5017116;28;20484;-70
2022/08/25 09:48:54;;;;;;;10.88;2.25;;;28.70;51.40;;;;;;5035192;28;20050;-74
2022/08/25 09:51:24;;;;;;;11.00;2.35;;;28.70;51.30;;;;;;4990548;28;20053;-73
2022/08/25 09:53:58;;;;;;;6.13;2.85;;;28.70;52.00;;;;;;5033639;28;20085;-73
2022/08/25 09:56:27;;;;;;;6.30;2.45;;;28.70;51.50;;;;;;5000888;28;20053;-77
2022/08/25 09:58:56;;;;;;;6.32;2.35;;;28.70;51.50;;;;;;5034535;28;20072;-73
2022/08/25 10:01:23;;;;;;;7.38;2.60;;;28.70;51.20;;;;;;5034766;28;20085;-69
2022/08/25 10:04:01;;;;;;;6.80;2.40;;;28.70;51.30;;;;;;5034712;28;20045;-69
2022/08/25 10:06:33;;;;;;;7.27;2.10;;;28.70;51.20;;;;;;5034963;28;20045;-71
2022/08/25 10:09:05;;;;;;;5.60;2.35;;;28.80;50.70;;;;;;5034276;28;20041;-71
2022/08/25 10:11:41;;;;;;;5.70;2.22;;;28.80;50.90;;;;;;5034307;28;20132;-72
2022/08/25 10:14:18;;;;;;;5.97;2.30;;;28.80;50.50;;;;;;5110573;27;20945;-71
2022/08/25 10:16:45;;;;;;;5.57;2.15;;;28.80;50.90;;;;;;5110819;28;20056;-70
2022/08/25 10:19:27;;;;;;;5.10;2.20;;;28.90;51.50;;;;;;5110470;28;20083;-69
2022/08/25 10:22:08;;;;;;;5.25;2.60;;;28.90;51.20;;;;;;5110517;28;20135;-70
2022/08/25 10:24:36;;;;;;;6.53;2.40;;;29.00;51.00;;;;;;5110381;28;20321;-67
2022/08/25 10:27:21;;;;;;;6.47;2.40;;;29.00;50.50;;;;;;5109409;28;20121;-68
2022/08/25 10:30:02;;;;;;;;;;;29.00;51.30;;;;;;5110894;28;20441;-67
2022/08/25 10:32:30;;;;;;;4.47;2.20;;;29.00;49.90;;;;;;5110291;28;19932;-68
2022/08/25 10:35:01;;;;;;;6.37;2.30;;;29.00;50.40;;;;;;5110205;28;20047;-67
2022/08/25 10:37:53;;;;;;;6.28;2.45;;;29.00;51.20;;;;;;5110419;28;20066;-66
2022/08/25 10:40:43;;;;;;;6.17;2.67;;;29.10;51.10;;;;;;5110069;28;20047;-67
2022/08/25 10:43:32;;;;;;;6.72;2.88;;;29.10;50.90;;;;;;5109934;28;20131;-67
2022/08/25 10:46:28;;;;;;;6.70;2.80;;;29.00;51.30;;;;;;5109265;28;20091;-66
2022/08/25 10:49:17;;;;;;;7.15;2.88;;;29.00;51.40;;;;;;5110141;28;20460;-66
2022/08/25 10:52:01;;;;;;;7.10;2.40;;;29.00;51.70;;;;;;5109918;28;20434;-66
2022/08/25 10:54:32;;;;;;;7.43;3.27;;;29.00;51.60;;;;;;5109848;28;20446;-67
2022/08/25 10:57:22;;;;;;;6.03;2.87;;;29.00;52.20;;;;;;5109923;28;20288;-71
2022/08/25 10:59:57;;;;;;;11.10;3.15;;;29.10;52.00;;;;;;5109924;28;20094;-69
2022/08/25 11:03:11;;;;;;;5.73;2.60;;;29.10;52.10;;;;;;5109475;28;20043;-72
2022/08/25 11:05:54;;;;;;;8.07;2.93;;;29.20;51.00;;;;;;5109942;28;20055;-70
2022/08/25 11:08:46;;;;;;;12.15;2.90;;;29.20;50.20;;;;;;5109327;28;20562;-69
2022/08/25 11:11:20;;;;;;;5.17;2.57;;;29.20;50.20;;;;;;5109535;28;20085;-70
2022/08/25 11:13:57;;;;;;;6.55;2.60;;;29.20;50.60;;;;;;5109301;28;20071;-69
2022/08/25 11:16:44;;;;;;;13.00;2.80;;;29.20;50.90;;;;;;5108224;28;20056;-70
2022/08/25 11:19:23;;;;;;;5.75;2.38;;;29.30;51.00;;;;;;5109352;28;20056;-70
2022/08/25 11:21:59;;;;;;;7.53;2.20;;;29.30;51.30;;;;;;5109436;28;20495;-69
2022/08/25 11:24:47;;;;;;;4.32;2.40;;;29.30;51.00;;;;;;5102001;28;20044;-69
2022/08/25 11:27:20;;;;;;;5.07;2.38;;;29.40;49.00;;;;;;5095376;28;20555;-69
2022/08/25 11:29:58;;;;;;;9.47;2.20;;;29.40;49.70;;;;;;5095967;28;20052;-69
2022/08/25 11:32:24;;;;;;;7.05;2.08;;;29.40;48.80;;;;;;5095465;28;20491;-69
2022/08/25 11:34:52;;;;;;;7.75;2.40;;;29.40;48.30;;;;;;5095618;28;20073;-69
2022/08/25 11:37:24;;;;;;;6.30;2.03;;;29.40;48.60;;;;;;5095398;28;20130;-69
2022/08/25 11:40:19;;;;;;;4.93;2.30;;;29.40;46.50;;;;;;5095492;28;20051;-70
2022/08/25 11:43:20;;;;;;;6.40;2.67;;;29.40;46.70;;;;;;5092365;28;20048;-68
2022/08/25 11:46:03;;;;;;;4.93;2.47;;;29.40;47.90;;;;;;5066509;28;20452;-68
2022/08/25 11:48:55;;;;;;;7.50;2.20;;;29.40;47.30;;;;;;5094069;28;20229;-68
2022/08/25 11:51:46;;;;;;;6.07;2.30;;;29.40;47.00;;;;;;5095264;28;20091;-68
2022/08/25 11:54:27;;;;;;;7.85;2.28;;;29.40;48.10;;;;;;5094962;28;20123;-68
2022/08/25 11:57:04;;;;;;;5.17;2.10;;;29.40;45.60;;;;;;5095539;28;20052;-67
2022/08/25 11:59:48;;;;;;;5.15;2.38;;;29.50;46.30;;;;;;5094902;28;20051;-67
2022/08/25 12:02:35;;;;;;;5.28;2.03;;;29.50;45.30;;;;;;5094789;28;20051;-68
2022/08/25 12:05:16;;;;;;;6.33;2.03;;;29.50;46.60;;;;;;5093595;28;20446;-67
2022/08/25 12:11:09;;;;;;;5.00;1.90;;;29.50;46.50;;;;;;5094870;28;20411;-67
2022/08/25 12:13:49;;;;;;;5.73;2.03;;;29.50;45.40;;;;;;5094658;28;20106;-68
2022/08/25 12:16:36;;;;;;;7.67;2.17;;;29.50;45.30;;;;;;5094635;28;20097;-68
2022/08/25 12:19:35;;;;;;;5.47;2.50;;;29.50;45.60;;;;;;5095029;28;20109;-68
2022/08/25 12:22:01;;;;;;;4.27;2.30;;;29.50;45.90;;;;;;5094589;28;20212;-69
2022/08/25 12:24:42;;;;;;;6.43;2.00;;;29.40;46.00;;;;;;5093421;28;20067;-68
2022/08/25 12:27:36;;;;;;;5.75;2.10;;;29.40;44.50;;;;;;5094090;28;20196;-70
2022/08/25 12:30:37;;;;;;;5.30;2.22;;;29.50;44.80;;;;;;5094704;28;20055;-69
2022/08/25 12:33:18;;;;;;;6.23;2.03;;;29.50;44.20;;;;;;5094641;28;20066;-71
2022/08/25 12:36:02;;;;;;;3.67;2.20;;;29.40;44.90;;;;;;5093479;28;20050;-71
2022/08/25 12:38:39;;;;;;;4.80;2.00;;;29.50;45.00;;;;;;5093315;28;20058;-70
2022/08/25 12:41:23;;;;;;;5.07;2.07;;;29.50;44.70;;;;;;5094370;28;20081;-71
2022/08/25 12:43:51;;;;;;;4.80;1.92;;;29.60;43.60;;;;;;5094269;28;20105;-72
2022/08/25 12:46:21;;;;;;;4.67;2.27;;;29.50;42.80;;;;;;5092856;28;20126;-72
2022/08/25 12:48:55;;;;;;;4.87;2.03;;;29.60;42.90;;;;;;5081019;28;20108;-69
2022/08/25 12:51:26;;;;;;;7.53;2.17;;;29.50;42.20;;;;;;5085521;28;20044;-69
2022/08/25 12:54:11;;;;;;;6.63;2.27;;;29.50;43.30;;;;;;5085583;28;20052;-69
2022/08/25 12:56:43;;;;;;;6.03;2.30;;;29.50;43.40;;;;;;5083695;28;20434;-69
2022/08/25 12:59:17;;;;;;;4.63;2.03;;;29.50;43.90;;;;;;5083771;28;20052;-69
2022/08/25 13:02:14;;;;;;;5.63;2.30;;;29.50;44.30;;;;;;5084234;28;20044;-69
2022/08/25 13:05:17;;;;;;;5.47;2.50;;;29.50;43.10;;;;;;5086381;28;20047;-70
2022/08/25 13:07:52;;;;;;;5.80;2.00;;;29.60;42.80;;;;;;5070411;28;20086;-69
2022/08/25 13:10:24;;;;;;;5.47;2.30;;;29.70;44.20;;;;;;5086537;28;20093;-69
2022/08/25 13:12:56;;;;;;;3.87;1.90;;;29.70;43.30;;;;;;5083124;28;20084;-69
2022/08/25 13:15:34;;;;;;;6.87;2.20;;;29.70;43.70;;;;;;5087485;28;20105;-68
2022/08/25 13:18:34;;;;;;;5.40;2.13;;;29.70;43.70;;;;;;5080342;28;20406;-68